Time;durP1;ratioP1;P1;durP2;ratioP2;P2;SDS_P1;SDS_P2;PMS_P1;PMS_P2;Temp;Humidity;BMP_temperature;BMP_pressure;BME280_temperature;BME280_humidity;BME280_pressure;Samples;Min_cycle;Max_cycle;Signal;HPM_P1;HPM_P2
2022/03/03 00:00:19;;;;;;;1.60;1.60;;;;;;;1.20;55.37;100798.00;104025;1279;139580;-74
2022/03/03 00:03:05;;;;;;;1.50;1.50;;;;;;;1.16;55.29;100801.79;104109;1280;109125;-73
2022/03/03 00:05:33;;;;;;;1.50;1.50;;;;;;;1.11;55.49;100799.77;103992;1279;139671;-74
2022/03/03 00:08:01;;;;;;;1.70;1.70;;;;;;;1.12;55.30;100796.14;104120;1280;95225;-74
2022/03/03 00:10:29;;;;;;;1.70;1.70;;;;;;;1.10;55.56;100792.76;103704;1282;141509;-74
2022/03/03 00:12:57;;;;;;;1.60;1.60;;;;;;;1.07;55.87;100793.57;104058;1280;100054;-74
2022/03/03 00:15:25;;;;;;;1.60;1.60;;;;;;;0.97;55.94;100789.56;104063;1280;109232;-73
2022/03/03 00:17:53;;;;;;;1.70;1.70;;;;;;;0.98;56.21;100789.93;103946;1279;139536;-74
2022/03/03 00:20:20;;;;;;;1.80;1.80;;;;;;;0.85;55.99;100787.91;104091;1281;95250;-75
2022/03/03 00:22:48;;;;;;;1.70;1.70;;;;;;;0.74;56.33;100786.83;103728;1281;139705;-75
2022/03/03 00:25:17;;;;;;;1.60;1.60;;;;;;;0.79;56.48;100781.16;103982;1279;236941;-74
2022/03/03 00:27:45;;;;;;;1.70;1.70;;;;;;;0.82;56.21;100775.80;104066;1279;109332;-74
2022/03/03 00:30:13;;;;;;;2.00;2.00;;;;;;;0.87;56.46;100771.00;103904;1279;139269;-74
2022/03/03 00:32:41;;;;;;;1.80;1.80;;;;;;;0.93;56.01;100761.84;104051;1279;95201;-75
2022/03/03 00:35:11;;;;;;;1.90;1.90;;;;;;;0.85;56.22;100749.46;103982;1280;139137;-74
2022/03/03 00:37:39;;;;;;;1.70;1.70;;;;;;;0.64;56.71;100740.67;104103;1281;98683;-75
2022/03/03 00:40:07;;;;;;;1.70;1.70;;;;;;;0.62;57.12;100740.63;104006;1281;109332;-74
2022/03/03 00:42:35;;;;;;;1.80;1.80;;;;;;;0.70;57.04;100739.38;104088;1279;138857;-74
2022/03/03 00:45:03;;;;;;;1.70;1.70;;;;;;;0.85;56.48;100735.99;104096;1279;95230;-74
2022/03/03 00:47:32;;;;;;;1.70;1.70;;;;;;;0.91;55.95;100736.46;103944;1279;139585;-76
2022/03/03 00:50:00;;;;;;;1.80;1.80;;;;;;;0.86;56.20;100736.19;104083;1281;99875;-74
2022/03/03 00:52:28;;;;;;;1.80;1.80;;;;;;;0.86;55.49;100737.76;103872;1281;139544;-75
2022/03/03 00:54:55;;;;;;;1.80;1.80;;;;;;;0.93;55.36;100733.34;104064;1279;95655;-75
2022/03/03 00:57:24;;;;;;;1.90;1.90;;;;;;;0.88;55.60;100731.16;104287;1279;95653;-75
2022/03/03 00:59:51;;;;;;;1.70;1.70;;;;;;;0.90;55.49;100726.83;103662;1282;139494;-76
2022/03/03 01:02:19;;;;;;;1.70;1.70;;;;;;;0.80;55.65;100720.88;104123;1279;99907;-75
2022/03/03 01:04:47;;;;;;;1.80;1.80;;;;;;;0.70;55.97;100720.35;104030;1279;142253;-75
2022/03/03 01:07:15;;;;;;;1.70;1.70;;;;;;;0.66;56.25;100714.32;104117;1279;95228;-74
2022/03/03 01:09:43;;;;;;;1.70;1.70;;;;;;;0.67;55.87;100719.59;104106;1279;95873;-74
2022/03/03 01:12:10;;;;;;;1.80;1.80;;;;;;;0.76;55.72;100717.83;103999;1279;138008;-75
2022/03/03 01:14:38;;;;;;;1.80;1.80;;;;;;;0.78;55.14;100721.20;103978;1281;100436;-74
2022/03/03 01:17:06;;;;;;;1.70;1.70;;;;;;;0.79;55.13;100723.14;103936;1280;139185;-75
2022/03/03 01:19:34;;;;;;;1.70;1.70;;;;;;;0.74;55.67;100722.34;104022;1281;95228;-75
2022/03/03 01:22:01;;;;;;;1.70;1.70;;;;;;;0.70;55.60;100721.39;104032;1279;95292;-75
2022/03/03 01:24:30;;;;;;;1.90;1.90;;;;;;;0.74;55.49;100721.64;104031;1279;142185;-74
2022/03/03 01:26:58;;;;;;;1.70;1.70;;;;;;;0.78;55.86;100717.70;104109;1281;100139;-74
2022/03/03 01:29:26;;;;;;;1.80;1.80;;;;;;;0.73;55.97;100716.89;103926;1281;141293;-75
2022/03/03 01:31:54;;;;;;;1.90;1.90;;;;;;;0.64;56.12;100719.36;104103;1279;95242;-76
2022/03/03 01:34:22;;;;;;;1.80;1.80;;;;;;;0.66;56.56;100719.05;103995;1279;140418;-75
2022/03/03 01:36:50;;;;;;;1.70;1.70;;;;;;;0.67;56.44;100715.04;104067;1280;110419;-75
2022/03/03 01:39:18;;;;;;;1.70;1.70;;;;;;;0.69;56.43;100715.77;104130;1280;98347;-75
2022/03/03 01:41:46;;;;;;;1.60;1.60;;;;;;;0.77;56.26;100710.16;104050;1279;140362;-75
2022/03/03 01:44:13;;;;;;;1.70;1.70;;;;;;;0.81;56.08;100707.80;104055;1280;95193;-75
2022/03/03 01:46:55;;;;;;;1.80;1.80;;;;;;;0.81;56.37;100708.32;103972;1280;140069;-75
2022/03/03 01:49:25;;;;;;;1.90;1.90;;;;;;;0.80;56.32;100713.71;104111;1279;109952;-75
2022/03/03 01:51:53;;;;;;;1.80;1.80;;;;;;;0.81;56.35;100711.80;104110;1281;99474;-75
2022/03/03 01:54:20;;;;;;;1.80;1.80;;;;;;;0.74;56.67;100703.64;103913;1280;139017;-75
2022/03/03 01:56:48;;;;;;;1.80;1.80;;;;;;;0.65;56.85;100701.89;104067;1279;95763;-75
2022/03/03 01:59:17;;;;;;;1.90;1.90;;;;;;;0.50;57.27;100700.41;103932;1280;139865;-74
2022/03/03 02:01:45;;;;;;;1.90;1.90;;;;;;;0.46;57.46;100698.91;104577;1281;110194;-77
2022/03/03 02:04:13;;;;;;;1.60;1.60;;;;;;;0.56;57.06;100699.10;104564;1280;140168;-77
2022/03/03 02:06:41;;;;;;;1.60;1.60;;;;;;;0.65;56.62;100695.95;104782;1279;109338;-77
2022/03/03 02:09:09;;;;;;;1.70;1.70;;;;;;;0.68;56.30;100696.89;104105;1281;95215;-77
2022/03/03 02:11:36;;;;;;;1.90;1.90;;;;;;;0.67;56.14;100692.84;104169;1282;141011;-77
2022/03/03 02:14:04;;;;;;;1.80;1.80;;;;;;;0.57;56.91;100691.80;104395;1280;110237;-78
2022/03/03 02:16:32;;;;;;;1.70;1.70;;;;;;;0.47;57.31;100688.29;104340;1281;138968;-77
2022/03/03 02:19:00;;;;;;;1.80;1.80;;;;;;;0.48;57.39;100687.27;104286;1281;109154;-79
2022/03/03 02:21:30;;;;;;;1.70;1.70;;;;;;;0.50;57.59;100687.48;104379;1280;95617;-77
2022/03/03 02:23:58;;;;;;;1.80;1.80;;;;;;;0.51;57.63;100683.64;104559;1282;138618;-78
2022/03/03 02:26:26;;;;;;;1.80;1.80;;;;;;;0.49;57.53;100682.21;104735;1280;110406;-76
2022/03/03 02:28:54;;;;;;;1.80;1.80;;;;;;;0.49;57.71;100683.27;103839;1281;138748;-77
2022/03/03 02:31:21;;;;;;;1.70;1.70;;;;;;;0.50;57.95;100676.63;104174;1280;110022;-78
2022/03/03 02:33:49;;;;;;;1.70;1.70;;;;;;;0.48;57.70;100676.60;104280;1279;95231;-77
2022/03/03 02:36:27;;;;;;;2.10;2.00;;;;;;;0.49;57.62;100673.29;104877;1279;139907;-78
2022/03/03 02:39:00;;;;;;;2.00;2.00;;;;;;;0.53;57.45;100669.69;104554;1279;110225;-77
2022/03/03 02:41:28;;;;;;;1.90;1.90;;;;;;;0.44;57.77;100667.62;104074;1279;138213;-77
2022/03/03 02:43:58;;;;;;;1.80;1.80;;;;;;;0.42;58.00;100668.10;104538;1279;109040;-77
2022/03/03 02:46:26;;;;;;;1.80;1.80;;;;;;;0.48;57.78;100664.72;103989;1279;138994;-75
2022/03/03 02:48:54;;;;;;;1.70;1.70;;;;;;;0.56;57.68;100663.29;104689;1281;95697;-77
2022/03/03 02:51:22;;;;;;;1.70;1.70;;;;;;;0.61;57.38;100659.70;104847;1279;110185;-78
2022/03/03 02:53:50;;;;;;;1.70;1.70;;;;;;;0.59;57.32;100658.80;104761;1279;139210;-78
2022/03/03 02:56:18;;;;;;;1.80;1.80;;;;;;;0.47;57.58;100658.92;104097;1281;108279;-77
2022/03/03 02:58:45;;;;;;;1.70;1.70;;;;;;;0.41;57.77;100658.65;104009;1279;141037;-77
2022/03/03 03:01:13;;;;;;;1.90;1.90;;;;;;;0.38;58.00;100657.89;104142;1279;95330;-77
2022/03/03 03:03:41;;;;;;;1.70;1.70;;;;;;;0.32;58.24;100656.91;104182;1279;108935;-77
2022/03/03 03:06:14;;;;;;;1.80;1.80;;;;;;;0.27;58.41;100654.88;104025;1280;139438;-77
2022/03/03 03:08:43;;;;;;;1.90;1.90;;;;;;;0.25;58.30;100653.97;104259;1279;109291;-77
2022/03/03 03:11:11;;;;;;;2.00;2.00;;;;;;;0.24;58.15;100656.91;104236;1280;139599;-77
2022/03/03 03:13:39;;;;;;;1.70;1.70;;;;;;;0.21;58.14;100653.89;104277;1279;95224;-77
2022/03/03 03:16:08;;;;;;;1.70;1.70;;;;;;;0.15;58.41;100648.52;104215;1279;110228;-78
2022/03/03 03:18:36;;;;;;;1.80;1.80;;;;;;;0.09;58.51;100651.91;104103;1279;138735;-77
2022/03/03 03:21:04;;;;;;;1.90;1.90;;;;;;;0.01;58.62;100644.58;104570;1278;109523;-76
2022/03/03 03:23:31;;;;;;;2.00;2.00;;;;;;;-0.05;59.00;100639.73;104031;1279;140238;-77
2022/03/03 03:25:59;;;;;;;2.00;2.00;;;;;;;-0.04;59.00;100638.89;104071;1282;95695;-77
2022/03/03 03:28:27;;;;;;;2.00;2.00;;;;;;;-0.02;58.40;100639.30;104140;1279;138778;-76
2022/03/03 03:30:56;;;;;;;1.80;1.80;;;;;;;0.04;58.45;100638.02;104429;1279;99548;-77
2022/03/03 03:33:23;;;;;;;2.00;2.00;;;;;;;-0.04;58.44;100634.70;104277;1279;108275;-77
2022/03/03 03:35:51;;;;;;;2.20;2.10;;;;;;;-0.13;58.59;100635.39;104082;1279;138986;-77
2022/03/03 03:38:19;;;;;;;1.90;1.90;;;;;;;-0.23;58.81;100629.77;104177;1279;95152;-77
2022/03/03 03:40:46;;;;;;;1.80;1.80;;;;;;;-0.22;58.89;100626.83;104123;1279;141147;-77
2022/03/03 03:43:14;;;;;;;1.90;1.90;;;;;;;-0.29;58.94;100627.19;104263;1279;99854;-77
2022/03/03 03:45:42;;;;;;;1.90;1.90;;;;;;;-0.22;58.78;100622.81;104679;1279;109257;-78
2022/03/03 03:48:10;;;;;;;2.20;2.10;;;;;;;-0.14;58.30;100623.86;104455;1280;138737;-78
2022/03/03 03:50:38;;;;;;;2.10;2.10;;;;;;;-0.20;58.48;100617.27;104856;1279;95289;-77
2022/03/03 03:53:06;;;;;;;1.90;1.90;;;;;;;-0.29;58.77;100615.16;105005;1279;139998;-79
2022/03/03 03:55:33;;;;;;;1.90;1.90;;;;;;;-0.44;59.02;100616.23;104768;1280;99838;-78
2022/03/03 03:58:01;;;;;;;2.00;2.00;;;;;;;-0.52;59.33;100617.98;104830;1281;108214;-77
2022/03/03 04:00:29;;;;;;;2.50;2.40;;;;;;;-0.55;59.59;100610.59;104115;1281;140480;-77
2022/03/03 04:02:57;;;;;;;1.90;1.90;;;;;;;-0.62;59.94;100609.20;104288;1280;96592;-78
2022/03/03 04:05:25;;;;;;;1.80;1.80;;;;;;;-0.62;60.11;100605.21;104596;1281;138511;-78
2022/03/03 04:07:53;;;;;;;1.90;1.90;;;;;;;-0.64;60.23;100602.20;104489;1281;99838;-77
2022/03/03 04:10:21;;;;;;;2.00;2.00;;;;;;;-0.68;60.01;100600.70;104157;1279;139800;-77
2022/03/03 04:12:49;;;;;;;2.30;2.20;;;;;;;-0.81;60.16;100594.66;104219;1280;95155;-77
2022/03/03 04:15:17;;;;;;;2.00;2.00;;;;;;;-0.76;60.56;100598.61;104303;1279;95717;-77
2022/03/03 04:17:45;;;;;;;2.10;2.10;;;;;;;-0.59;60.27;100602.47;104156;1279;140739;-76
2022/03/03 04:20:12;;;;;;;1.90;1.90;;;;;;;-0.47;59.90;100600.13;104330;1280;103118;-77
2022/03/03 04:22:41;;;;;;;1.80;1.80;;;;;;;-0.40;59.02;100598.51;104109;1281;138824;-77
2022/03/03 04:25:12;;;;;;;2.20;2.10;;;;;;;-0.50;59.35;100596.91;104216;1279;95783;-77
2022/03/03 04:27:40;;;;;;;2.00;2.00;;;;;;;-0.58;59.39;100592.89;104391;1279;95141;-79
2022/03/03 04:30:10;;;;;;;2.10;2.10;;;;;;;-0.68;59.57;100587.63;104316;1281;140005;-76
2022/03/03 04:32:38;;;;;;;2.00;2.00;;;;;;;-0.62;59.70;100597.19;104244;1280;99911;-77
2022/03/03 04:35:08;;;;;;;2.20;2.10;;;;;;;-0.59;59.57;100593.94;104259;1279;140181;-77
2022/03/03 04:37:37;;;;;;;2.20;2.10;;;;;;;-0.61;59.54;100597.56;105014;1281;95283;-78
2022/03/03 04:40:06;;;;;;;2.00;2.00;;;;;;;-0.59;59.56;100600.20;104773;1280;95241;-77
2022/03/03 04:42:34;;;;;;;1.90;1.90;;;;;;;-0.49;59.42;100596.75;104586;1281;139131;-77
2022/03/03 04:45:03;;;;;;;2.20;2.10;;;;;;;-0.51;59.04;100595.14;104218;1281;99651;-77
2022/03/03 04:47:32;;;;;;;2.20;2.10;;;;;;;-0.59;59.21;100593.56;104064;1281;139724;-77
2022/03/03 04:50:00;;;;;;;2.20;2.10;;;;;;;-0.63;59.55;100593.14;104367;1281;95239;-78
2022/03/03 04:52:27;;;;;;;1.90;1.90;;;;;;;-0.52;59.33;100590.95;104712;1280;139605;-78
2022/03/03 04:54:55;;;;;;;1.90;1.90;;;;;;;-0.41;58.67;100588.02;104516;1281;110075;-77
2022/03/03 04:57:23;;;;;;;1.90;1.90;;;;;;;-0.41;58.54;100587.88;104475;1281;98698;-77
2022/03/03 04:59:50;;;;;;;2.20;2.10;;;;;;;-0.46;58.44;100579.73;104146;1281;139002;-77
2022/03/03 05:02:18;;;;;;;2.40;2.30;;;;;;;-0.57;58.48;100580.71;104260;1279;95239;-77
2022/03/03 05:04:46;;;;;;;2.20;2.10;;;;;;;-0.57;58.92;100580.56;104906;1280;139084;-78
2022/03/03 05:07:14;;;;;;;1.90;1.90;;;;;;;-0.61;58.77;100579.42;105487;1280;110183;-78
2022/03/03 05:09:42;;;;;;;2.00;2.00;;;;;;;-0.66;58.90;100579.82;105570;1281;99879;-78
2022/03/03 05:12:10;;;;;;;2.00;2.00;;;;;;;-0.63;58.85;100579.38;105482;1280;138620;-78
2022/03/03 05:14:38;;;;;;;2.30;2.20;;;;;;;-0.64;58.90;100577.09;104995;1279;95218;-78
2022/03/03 05:17:06;;;;;;;2.00;2.00;;;;;;;-0.65;58.84;100577.05;104380;1281;140187;-76
2022/03/03 05:19:34;;;;;;;1.90;1.90;;;;;;;-0.69;58.99;100571.74;104342;1281;110150;-77
2022/03/03 05:22:02;;;;;;;2.00;2.00;;;;;;;-0.77;59.06;100571.73;104357;1280;101035;-76
2022/03/03 05:24:30;;;;;;;2.30;2.20;;;;;;;-0.80;59.20;100569.92;104268;1280;141004;-77
2022/03/03 05:26:57;;;;;;;2.20;2.10;;;;;;;-0.76;59.26;100571.05;104249;1281;95261;-77
2022/03/03 05:29:27;;;;;;;2.00;2.00;;;;;;;-0.69;59.01;100572.08;104482;1281;140455;-79
2022/03/03 05:31:57;;;;;;;1.90;1.90;;;;;;;-0.66;58.93;100566.55;104509;1281;109730;-79
2022/03/03 05:34:26;;;;;;;2.00;2.00;;;;;;;-0.73;59.16;100566.96;104467;1280;140334;-77
2022/03/03 05:36:54;;;;;;;2.20;2.10;;;;;;;-0.85;59.34;100566.84;104343;1281;109174;-77
2022/03/03 05:39:22;;;;;;;2.30;2.20;;;;;;;-0.81;59.66;100565.19;104451;1280;95114;-77
2022/03/03 05:41:50;;;;;;;2.30;2.20;;;;;;;-0.73;59.76;100566.60;104356;1279;141981;-77
2022/03/03 05:44:18;;;;;;;2.00;2.00;;;;;;;-0.70;59.69;100566.15;104505;1281;109808;-78
2022/03/03 05:46:47;;;;;;;2.20;2.10;;;;;;;-0.70;59.84;100568.23;104368;1281;139341;-78
2022/03/03 05:49:16;;;;;;;2.20;2.10;;;;;;;-0.73;59.75;100563.13;104192;1281;108328;-77
2022/03/03 05:51:44;;;;;;;1.90;1.90;;;;;;;-0.70;59.95;100562.30;104376;1280;95214;-77
2022/03/03 05:54:12;;;;;;;2.20;2.10;;;;;;;-0.61;60.27;100561.45;104304;1280;141704;-77
2022/03/03 05:56:42;;;;;;;2.00;2.00;;;;;;;-0.55;59.98;100561.23;104421;1280;110802;-77
2022/03/03 05:59:13;;;;;;;2.10;2.10;;;;;;;-0.50;59.88;100558.38;104087;1282;139475;-77
2022/03/03 06:01:42;;;;;;;2.60;2.50;;;;;;;-0.45;59.97;100559.70;104326;1281;109315;-78
2022/03/03 06:04:15;;;;;;;2.20;2.10;;;;;;;-0.42;60.07;100557.85;104498;1281;95704;-78
2022/03/03 06:06:53;;;;;;;1.90;1.90;;;;;;;-0.37;60.17;100554.11;105662;1280;139042;-79
2022/03/03 06:09:27;;;;;;;2.00;2.00;;;;;;;-0.19;59.80;100556.21;104725;1280;110263;-78
2022/03/03 06:12:06;;;;;;;2.00;2.00;;;;;;;-0.14;59.90;100553.86;104336;1280;139923;-79
2022/03/03 06:14:46;;;;;;;2.00;2.00;;;;;;;-0.12;59.76;100558.45;104330;1280;109307;-77
2022/03/03 06:17:14;;;;;;;1.80;1.80;;;;;;;-0.15;59.82;100553.32;104366;1279;143329;-78
2022/03/03 06:19:42;;;;;;;1.80;1.80;;;;;;;-0.16;60.25;100556.45;104359;1279;95688;-77
2022/03/03 06:22:11;;;;;;;2.00;2.00;;;;;;;-0.07;60.17;100557.84;104210;1280;110313;-77
2022/03/03 06:24:39;;;;;;;1.90;1.90;;;;;;;0.07;59.85;100557.23;104716;1280;139557;-77
2022/03/03 06:27:07;;;;;;;2.20;2.10;;;;;;;0.20;59.63;100562.54;104922;1279;109573;-78
2022/03/03 06:29:36;;;;;;;1.90;1.90;;;;;;;0.35;59.11;100559.66;104779;1279;140341;-77
2022/03/03 06:32:04;;;;;;;1.80;1.80;;;;;;;0.43;59.01;100556.66;104222;1280;95670;-76
2022/03/03 06:34:32;;;;;;;1.80;1.80;;;;;;;0.48;58.84;100561.48;104297;1280;140124;-78
2022/03/03 06:37:00;;;;;;;1.90;1.90;;;;;;;0.56;58.61;100561.96;104370;1279;99832;-77
2022/03/03 06:39:28;;;;;;;2.00;2.00;;;;;;;0.62;58.33;100565.91;104154;1281;109995;-78
2022/03/03 06:41:56;;;;;;;1.90;1.90;;;;;;;0.71;58.52;100560.46;104125;1280;139725;-77
2022/03/03 06:44:23;;;;;;;1.80;1.80;;;;;;;0.78;58.22;100562.67;104265;1279;95863;-77
2022/03/03 06:46:51;;;;;;;1.80;1.80;;;;;;;0.74;57.92;100575.19;104437;1279;138857;-78
2022/03/03 06:49:19;;;;;;;1.70;1.70;;;;;;;0.75;58.27;100573.63;104075;1281;99392;-76
2022/03/03 06:51:48;;;;;;;2.00;2.00;;;;;;;0.76;58.68;100570.34;104243;1279;108331;-76
2022/03/03 06:54:19;;;;;;;1.80;1.80;;;;;;;0.86;58.50;100566.98;104040;1279;139665;-76
2022/03/03 06:56:48;;;;;;;1.80;1.80;;;;;;;0.91;58.50;100569.52;104177;1279;95124;-76
2022/03/03 06:59:21;;;;;;;1.70;1.70;;;;;;;0.92;58.46;100570.75;104023;1278;139683;-75
2022/03/03 07:01:50;;;;;;;1.70;1.70;;;;;;;0.95;59.00;100565.56;104144;1279;100080;-75
2022/03/03 07:04:18;;;;;;;1.50;1.50;;;;;;;1.05;59.14;100565.89;104317;1279;109359;-74
2022/03/03 07:06:48;;;;;;;1.70;1.70;;;;;;;1.13;58.62;100569.68;103966;1279;140791;-74
2022/03/03 07:09:16;;;;;;;1.60;1.60;;;;;;;1.25;58.86;100567.39;104342;1279;95176;-75
2022/03/03 07:11:45;;;;;;;1.60;1.60;;;;;;;1.33;58.53;100557.73;103983;1279;138952;-74
2022/03/03 07:14:14;;;;;;;1.60;1.60;;;;;;;1.40;58.50;100559.05;104163;1280;99952;-75
2022/03/03 07:16:47;;;;;;;1.70;1.70;;;;;;;1.46;57.84;100553.88;104733;1279;138629;-75
2022/03/03 07:19:27;;;;;;;1.60;1.60;;;;;;;1.60;58.25;100550.04;104163;1279;95919;-74
2022/03/03 07:22:17;;;;;;;1.50;1.50;;;;;;;1.74;57.87;100551.26;104115;1279;95172;-74
2022/03/03 07:25:00;;;;;;;1.50;1.50;;;;;;;1.83;57.86;100544.89;104025;1279;139297;-73
2022/03/03 07:27:29;;;;;;;1.50;1.50;;;;;;;1.87;57.32;100544.75;104347;1279;98425;-74
2022/03/03 07:30:08;;;;;;;1.50;1.50;;;;;;;1.85;57.36;100544.73;103960;1279;139075;-74
2022/03/03 07:32:39;;;;;;;1.60;1.60;;;;;;;1.91;57.32;100544.63;104097;1280;95400;-74
2022/03/03 07:35:10;;;;;;;1.60;1.60;;;;;;;1.97;57.49;100548.54;104042;1279;139961;-73
2022/03/03 07:37:49;;;;;;;1.40;1.40;;;;;;;2.12;57.77;100546.77;104063;1279;110334;-74
2022/03/03 07:40:17;;;;;;;1.30;1.30;;;;;;;2.14;57.14;100544.18;104180;1280;99813;-73
2022/03/03 07:42:45;;;;;;;1.40;1.40;;;;;;;2.28;57.24;100545.36;103939;1279;137464;-74
2022/03/03 07:45:13;;;;;;;1.40;1.40;;;;;;;2.45;56.87;100538.17;104165;1280;95342;-74
2022/03/03 07:47:41;;;;;;;1.50;1.50;;;;;;;2.46;56.72;100543.27;103998;1279;139043;-74
2022/03/03 07:50:10;;;;;;;1.40;1.40;;;;;;;2.44;56.54;100555.34;104159;1280;110127;-74
2022/03/03 07:52:38;;;;;;;1.50;1.50;;;;;;;2.41;56.53;100562.84;104026;1279;140023;-74
2022/03/03 07:55:06;;;;;;;1.40;1.40;;;;;;;2.44;56.66;100568.11;104056;1280;109704;-73
2022/03/03 07:57:39;;;;;;;1.30;1.30;;;;;;;2.41;56.50;100558.81;104085;1281;95939;-74
2022/03/03 08:00:09;;;;;;;1.30;1.30;;;;;;;2.44;56.53;100560.41;104023;1280;139081;-73
2022/03/03 08:02:42;;;;;;;1.40;1.40;;;;;;;2.53;56.14;100565.22;104156;1280;108695;-73
2022/03/03 08:05:10;;;;;;;1.40;1.40;;;;;;;2.61;56.34;100565.47;103997;1280;139166;-73
2022/03/03 08:07:44;;;;;;;1.50;1.50;;;;;;;2.77;56.32;100563.15;104088;1281;110402;-74
2022/03/03 08:10:14;;;;;;;1.40;1.40;;;;;;;2.95;56.05;100565.40;104310;1280;95248;-74
2022/03/03 08:12:42;;;;;;;1.30;1.30;;;;;;;3.02;55.47;100560.55;104040;1281;140006;-73
2022/03/03 08:15:11;;;;;;;1.30;1.30;;;;;;;3.00;55.35;100558.60;104409;1281;110614;-74
2022/03/03 08:17:40;;;;;;;1.40;1.40;;;;;;;3.00;55.59;100557.90;104383;1280;141030;-73
2022/03/03 08:20:08;;;;;;;1.40;1.40;;;;;;;3.07;55.35;100553.73;104134;1280;109605;-74
2022/03/03 08:22:38;;;;;;;1.30;1.30;;;;;;;3.18;55.01;100549.76;104002;1281;139968;-75
2022/03/03 08:25:08;;;;;;;1.30;1.30;;;;;;;3.20;54.93;100540.31;103864;1281;95259;-74
2022/03/03 08:27:37;;;;;;;1.30;1.30;;;;;;;3.27;54.62;100539.29;103833;1281;110664;-74
2022/03/03 08:30:07;;;;;;;1.20;1.20;;;;;;;3.25;54.28;100537.17;103968;1281;139459;-74
2022/03/03 08:32:38;;;;;;;1.30;1.30;;;;;;;3.33;54.26;100537.74;104133;1281;108257;-73
2022/03/03 08:35:11;;;;;;;1.40;1.40;;;;;;;3.39;54.00;100535.68;104056;1281;139617;-74
2022/03/03 08:37:45;;;;;;;1.40;1.40;;;;;;;3.42;54.08;100528.67;104062;1281;95630;-74
2022/03/03 08:40:16;;;;;;;1.30;1.30;;;;;;;3.25;53.60;100528.06;104016;1281;109933;-74
2022/03/03 08:42:51;;;;;;;1.50;1.50;;;;;;;3.26;53.68;100528.95;104055;1281;137969;-74
2022/03/03 08:45:19;;;;;;;1.30;1.30;;;;;;;3.39;53.58;100523.56;103843;1281;107935;-74
2022/03/03 08:47:56;;;;;;;1.30;1.30;;;;;;;3.49;52.66;100523.61;103784;1281;138331;-73
2022/03/03 08:50:30;;;;;;;1.30;1.30;;;;;;;3.56;52.84;100524.52;104140;1280;95150;-73
2022/03/03 08:53:00;;;;;;;1.60;1.60;;;;;;;3.55;52.77;100521.36;103768;1281;139573;-74
2022/03/03 08:55:28;;;;;;;1.20;1.20;;;;;;;3.48;52.96;100520.63;103894;1281;98450;-73
2022/03/03 08:57:58;;;;;;;1.30;1.30;;;;;;;3.56;53.21;100516.10;104061;1281;109903;-74
2022/03/03 09:00:27;;;;;;;1.20;1.20;;;;;;;3.63;52.75;100517.52;103926;1281;140717;-74
2022/03/03 09:02:55;;;;;;;1.20;1.20;;;;;;;3.68;52.32;100522.30;104086;1281;95571;-74
2022/03/03 09:05:23;;;;;;;1.30;1.30;;;;;;;3.82;52.44;100516.55;103949;1281;139631;-73
2022/03/03 09:07:51;;;;;;;1.20;1.20;;;;;;;4.05;52.09;100519.60;104014;1281;99911;-74
2022/03/03 09:10:19;;;;;;;1.30;1.30;;;;;;;4.14;51.13;100519.80;104086;1281;109246;-74
2022/03/03 09:12:47;;;;;;;1.60;1.60;;;;;;;4.49;50.90;100517.71;103986;1281;142127;-74
2022/03/03 09:15:15;;;;;;;1.30;1.30;;;;;;;6.28;50.23;100508.98;104150;1281;95665;-74
2022/03/03 09:17:44;;;;;;;1.10;1.10;;;;;;;8.64;45.39;100500.10;104101;1281;139453;-74
2022/03/03 09:20:13;;;;;;;0.70;0.70;;;;;;;10.32;40.85;100496.06;104168;1281;100026;-73
2022/03/03 09:22:43;;;;;;;0.50;0.50;;;;;;;11.46;38.55;100488.71;104103;1281;139947;-74
2022/03/03 09:25:11;;;;;;;0.50;0.40;;;;;;;11.32;37.25;100492.47;104029;1280;95681;-73
2022/03/03 09:27:39;;;;;;;0.40;0.40;;;;;;;10.48;36.92;100491.81;104130;1280;95235;-73
2022/03/03 09:30:09;;;;;;;0.50;0.50;;;;;;;10.07;38.45;100490.98;104022;1281;138319;-73
2022/03/03 09:32:38;;;;;;;0.50;0.50;;;;;;;9.84;38.63;100492.39;104040;1279;99719;-73
2022/03/03 09:35:06;;;;;;;0.70;0.70;;;;;;;9.59;38.43;100493.44;104525;1281;139516;-73
2022/03/03 09:37:34;;;;;;;0.80;0.80;;;;;;;9.73;38.22;100494.20;103896;1281;95235;-73
2022/03/03 09:40:03;;;;;;;0.50;0.50;;;;;;;11.04;36.48;100489.52;104163;1281;95337;-74
2022/03/03 09:42:34;;;;;;;0.50;0.50;;;;;;;12.09;35.63;100488.84;104173;1281;139507;-74
2022/03/03 09:45:09;;;;;;;0.60;0.60;;;;;;;13.02;33.68;100482.40;103854;1281;100494;-75
2022/03/03 09:47:39;;;;;;;0.50;0.50;;;;;;;14.39;32.19;100477.77;103726;1281;139784;-74
2022/03/03 09:50:07;;;;;;;0.40;0.40;;;;;;;15.94;30.14;100481.42;104116;1281;95153;-75
2022/03/03 09:52:36;;;;;;;0.40;0.30;;;;;;;17.27;27.19;100473.58;103763;1281;139881;-74
2022/03/03 09:55:05;;;;;;;0.40;0.20;;;;;;;18.38;25.51;100472.34;103757;1281;110095;-75
2022/03/03 09:57:35;;;;;;;0.40;0.30;;;;;;;19.39;24.59;100472.29;103796;1282;99884;-74
2022/03/03 10:00:08;;;;;;;0.40;0.20;;;;;;;20.24;23.68;100472.02;103746;1281;139919;-74
2022/03/03 10:02:59;;;;;;;0.40;0.10;;;;;;;20.91;22.79;100471.71;103942;1281;95134;-75
2022/03/03 10:05:51;;;;;;;0.40;0.10;;;;;;;21.64;21.40;100470.06;103710;1281;139943;-74
2022/03/03 10:08:23;;;;;;;0.40;0.10;;;;;;;22.34;19.63;100471.21;103884;1281;110322;-73
2022/03/03 10:10:54;;;;;;;0.40;0.10;;;;;;;22.57;19.19;100468.58;103823;1281;139695;-75
2022/03/03 10:13:22;;;;;;;0.40;0.10;;;;;;;23.32;18.86;100461.35;103919;1281;109177;-74
2022/03/03 10:15:57;;;;;;;0.40;0.10;;;;;;;24.03;18.20;100466.45;103863;1281;96538;-74
2022/03/03 10:18:26;;;;;;;0.40;0.10;;;;;;;24.47;18.05;100466.84;103735;1281;139873;-74
2022/03/03 10:20:55;;;;;;;0.40;0.10;;;;;;;24.97;17.47;100459.70;103789;1281;110142;-74
2022/03/03 10:23:24;;;;;;;0.40;0.10;;;;;;;25.27;16.81;100454.08;103784;1281;139481;-74
2022/03/03 10:25:53;;;;;;;0.40;0.00;;;;;;;25.37;16.87;100451.39;103826;1281;109342;-73
2022/03/03 10:28:24;;;;;;;0.40;0.00;;;;;;;25.77;16.62;100447.09;103801;1281;96597;-73
2022/03/03 10:31:08;;;;;;;0.40;0.10;;;;;;;26.02;16.29;100446.69;104015;1281;138974;-74
2022/03/03 10:33:47;;;;;;;0.40;0.00;;;;;;;26.20;16.03;100443.07;103882;1281;108733;-74
2022/03/03 10:36:16;;;;;;;0.40;0.10;;;;;;;26.59;15.64;100442.59;103739;1281;139906;-75
2022/03/03 10:38:48;;;;;;;0.40;0.00;;;;;;;26.85;15.47;100445.88;103918;1281;109214;-74
2022/03/03 10:41:35;;;;;;;0.40;0.00;;;;;;;27.12;14.58;100449.89;103959;1281;142341;-75
2022/03/03 10:44:12;;;;;;;0.40;0.00;;;;;;;27.19;14.60;100450.61;104161;1281;95284;-74
2022/03/03 10:47:00;;;;;;;0.40;0.00;;;;;;;27.12;14.62;100449.64;104247;1280;140280;-75
2022/03/03 10:49:28;;;;;;;0.40;0.00;;;;;;;24.98;15.84;100454.30;104257;1281;100000;-75
2022/03/03 10:52:16;;;;;;;0.40;0.10;;;;;;;23.10;17.19;100454.38;104246;1281;108392;-75
2022/03/03 10:55:01;;;;;;;0.40;0.00;;;;;;;22.77;17.36;100452.77;104036;1281;139177;-74
2022/03/03 10:57:46;;;;;;;0.40;0.00;;;;;;;21.13;18.55;100458.42;104060;1280;95940;-75
2022/03/03 11:00:15;;;;;;;0.40;0.10;;;;;;;19.36;19.89;100468.50;103746;1281;139793;-73
2022/03/03 11:02:48;;;;;;;0.40;0.10;;;;;;;17.93;21.36;100466.05;104054;1281;99292;-74
2022/03/03 11:05:18;;;;;;;0.40;0.10;;;;;;;16.89;22.60;100467.83;104121;1281;139739;-74
2022/03/03 11:07:47;;;;;;;0.40;0.10;;;;;;;16.07;23.73;100469.54;103832;1281;95634;-74
2022/03/03 11:10:19;;;;;;;0.40;0.20;;;;;;;15.22;24.59;100471.09;104376;1281;95323;-74
2022/03/03 11:12:47;;;;;;;0.40;0.20;;;;;;;14.50;25.33;100471.98;104013;1281;140258;-74
2022/03/03 11:15:18;;;;;;;0.40;0.20;;;;;;;13.89;25.65;100465.84;104077;1281;98889;-75
2022/03/03 11:17:48;;;;;;;0.40;0.30;;;;;;;13.23;26.41;100463.66;103946;1281;138210;-74
2022/03/03 11:20:18;;;;;;;0.40;0.30;;;;;;;12.81;27.28;100461.39;104445;1281;95749;-73
2022/03/03 11:22:46;;;;;;;0.40;0.30;;;;;;;12.10;27.09;100473.14;103992;1281;140582;-74
2022/03/03 11:25:31;;;;;;;0.40;0.30;;;;;;;11.45;27.89;100474.01;104218;1281;110159;-74
2022/03/03 11:28:19;;;;;;;0.40;0.30;;;;;;;11.06;28.24;100467.61;104081;1281;99871;-74